createdAt,value
2023-04-01T00:01:16.809Z,1.42
2023-04-01T00:03:49.248Z,1.10
2023-04-01T00:06:21.682Z,1.13
2023-04-01T00:08:53.975Z,1.10
2023-04-01T00:11:28.050Z,1.70
2023-04-01T00:14:01.477Z,1.10
2023-04-01T00:16:34.050Z,0.95
2023-04-01T00:19:06.468Z,1.17
2023-04-01T00:21:38.762Z,1.02
2023-04-01T00:24:11.039Z,1.00
2023-04-01T00:26:44.433Z,0.90
2023-04-01T00:29:17.405Z,1.08
2023-04-01T00:31:50.041Z,1.10
2023-04-01T00:34:22.429Z,1.00
2023-04-01T00:36:54.779Z,1.20
2023-04-01T00:39:30.040Z,1.17
2023-04-01T00:42:03.887Z,1.10
2023-04-01T00:44:38.892Z,1.33
2023-04-01T00:47:11.443Z,2.05
2023-04-01T00:49:47.264Z,1.13
2023-04-01T00:52:23.282Z,0.55
2023-04-01T00:55:01.422Z,0.80
2023-04-01T00:57:37.443Z,0.90
2023-04-01T01:00:14.324Z,1.10
2023-04-01T01:02:47.709Z,1.13
2023-04-01T01:05:29.383Z,1.95
2023-04-01T01:08:08.519Z,0.95
2023-04-01T01:10:40.922Z,0.70
2023-04-01T01:13:21.547Z,1.10
2023-04-01T01:15:59.798Z,0.90
2023-04-01T01:18:36.794Z,1.08
2023-04-01T01:21:26.808Z,0.70
2023-04-01T01:24:27.170Z,0.80
2023-04-01T01:27:08.476Z,1.30
2023-04-01T01:30:01.651Z,0.90
2023-04-01T01:33:28.353Z,0.60
2023-04-01T01:36:05.334Z,0.70
2023-04-01T01:38:39.744Z,0.93
2023-04-01T01:41:16.386Z,0.68
2023-04-01T01:43:52.419Z,0.68
2023-04-01T01:46:28.512Z,0.90
2023-04-01T01:49:02.851Z,0.88
2023-04-01T01:51:35.776Z,1.30
2023-04-01T01:54:13.052Z,1.27
2023-04-01T01:56:49.751Z,0.82
2023-04-01T01:59:24.932Z,1.00
2023-04-01T02:01:59.219Z,0.95
2023-04-01T02:04:32.080Z,1.08
2023-04-01T02:07:09.477Z,0.82
2023-04-01T02:09:42.133Z,0.60
2023-04-01T02:12:17.111Z,0.70
2023-04-01T02:14:53.817Z,1.13
2023-04-01T02:17:30.964Z,0.93
2023-04-01T02:20:09.157Z,1.13
2023-04-01T02:22:45.939Z,0.70
2023-04-01T02:25:21.458Z,1.02
2023-04-01T02:27:55.973Z,0.90
2023-04-01T02:30:30.792Z,1.05
2023-04-01T02:33:04.716Z,1.00
2023-04-01T02:35:38.029Z,0.65
2023-04-01T02:38:11.013Z,0.77
2023-04-01T02:40:47.206Z,1.00
2023-04-01T02:43:20.128Z,0.82
2023-04-01T02:45:52.448Z,0.47
2023-04-01T02:48:24.845Z,0.73
2023-04-01T02:50:57.319Z,0.77
2023-04-01T02:53:30.359Z,0.77
2023-04-01T02:56:02.804Z,0.60
2023-04-01T02:58:35.785Z,0.80
2023-04-01T03:01:08.519Z,1.25
2023-04-01T03:03:41.149Z,0.80
2023-04-01T03:06:15.738Z,0.93
2023-04-01T03:08:48.900Z,1.00
2023-04-01T03:11:21.491Z,1.00
2023-04-01T03:13:53.798Z,1.15
2023-04-01T03:16:26.332Z,0.95
2023-04-01T03:19:00.035Z,0.90
2023-04-01T03:21:32.830Z,0.93
2023-04-01T03:24:08.149Z,0.88
2023-04-01T03:26:40.484Z,0.73
2023-04-01T03:29:12.958Z,1.20
2023-04-01T03:31:46.480Z,1.25
2023-04-01T03:34:18.878Z,0.85
2023-04-01T03:36:51.478Z,0.93
2023-04-01T03:39:25.489Z,1.00
2023-04-01T03:41:57.822Z,1.05
2023-04-01T03:44:31.755Z,0.90
2023-04-01T03:47:04.586Z,0.88
2023-04-01T03:49:36.979Z,2.05
2023-04-01T03:52:11.360Z,1.40
2023-04-01T03:54:44.366Z,1.00
2023-04-01T03:57:16.788Z,0.93
2023-04-01T03:59:49.167Z,1.20
2023-04-01T04:02:21.665Z,1.90
2023-04-01T04:04:54.003Z,1.27
2023-04-01T04:07:26.439Z,1.00
2023-04-01T04:10:08.392Z,1.00
2023-04-01T04:12:41.321Z,1.10
2023-04-01T04:15:13.842Z,0.85
2023-04-01T04:17:46.731Z,1.08
2023-04-01T04:20:20.437Z,1.00
2023-04-01T04:22:52.733Z,0.65
2023-04-01T04:25:25.733Z,0.73
2023-04-01T04:27:58.163Z,1.23
2023-04-01T04:30:30.573Z,1.00
2023-04-01T04:33:02.957Z,0.60
2023-04-01T04:35:35.686Z,0.70
2023-04-01T04:38:08.495Z,0.80
2023-04-01T04:40:42.496Z,1.38
2023-04-01T04:43:17.638Z,0.93
2023-04-01T04:45:50.205Z,1.10
2023-04-01T04:48:22.553Z,1.00
2023-04-01T04:50:54.987Z,1.13
2023-04-01T04:53:30.161Z,0.57
2023-04-01T04:56:03.192Z,0.57
2023-04-01T04:58:49.352Z,0.52
2023-04-01T05:01:26.080Z,0.82
2023-04-01T05:03:58.900Z,1.15
2023-04-01T05:06:31.677Z,0.68
2023-04-01T05:09:04.217Z,0.47
2023-04-01T05:11:37.205Z,1.52
2023-04-01T05:14:13.870Z,1.45
2023-04-01T05:16:47.216Z,1.20
2023-04-01T05:19:20.570Z,1.38
2023-04-01T05:21:53.518Z,1.27
2023-04-01T05:24:26.108Z,1.08
2023-04-01T05:26:59.384Z,1.15
2023-04-01T05:29:33.554Z,0.98
2023-04-01T05:32:10.886Z,1.27
2023-04-01T05:34:43.677Z,1.40
2023-04-01T05:37:16.086Z,1.10
2023-04-01T05:39:48.410Z,1.00
2023-04-01T05:42:21.422Z,1.45
2023-04-01T05:44:53.912Z,1.10
2023-04-01T05:47:46.679Z,0.95
2023-04-01T05:50:19.270Z,0.95
2023-04-01T05:52:51.619Z,0.90
2023-04-01T05:55:24.253Z,0.65
2023-04-01T05:57:57.820Z,0.90
2023-04-01T06:00:30.465Z,0.75
2023-04-01T06:03:05.012Z,0.80
2023-04-01T06:05:40.771Z,1.77
2023-04-01T06:08:16.245Z,2.53
2023-04-01T06:11:00.280Z,1.08
2023-04-01T06:13:51.626Z,1.42
2023-04-01T06:16:35.945Z,1.08
2023-04-01T06:19:23.296Z,1.10
2023-04-01T06:22:22.980Z,0.80
2023-04-01T06:25:30.837Z,0.70
2023-04-01T06:28:40.018Z,0.90
2023-04-01T06:31:26.526Z,1.10
2023-04-01T06:34:16.154Z,1.02
2023-04-01T06:37:03.349Z,0.95
2023-04-01T06:39:59.670Z,1.20
2023-04-01T06:42:43.628Z,1.00
2023-04-01T06:45:43.530Z,1.02
2023-04-01T06:49:04.054Z,1.02
2023-04-01T06:52:21.264Z,0.95
2023-04-01T06:55:39.044Z,0.65
2023-04-01T06:58:22.130Z,1.23
2023-04-01T07:00:59.428Z,1.88
2023-04-01T07:03:37.136Z,0.77
2023-04-01T07:06:20.956Z,1.07
2023-04-01T07:09:03.494Z,1.05
2023-04-01T07:12:03.306Z,1.52
2023-04-01T07:15:17.534Z,1.17
2023-04-01T07:17:56.149Z,0.90
2023-04-01T07:20:32.095Z,1.13
2023-04-01T07:23:11.357Z,0.60
2023-04-01T07:26:01.620Z,1.13
2023-04-01T07:28:34.707Z,1.02
2023-04-01T07:31:30.621Z,1.05
2023-04-01T07:34:13.180Z,1.33
2023-04-01T07:36:49.498Z,1.27
2023-04-01T07:39:33.424Z,1.30
2023-04-01T07:42:25.912Z,0.85
2023-04-01T07:45:08.404Z,0.68
2023-04-01T07:47:58.211Z,1.33
2023-04-01T07:50:33.367Z,1.15
2023-04-01T07:53:15.839Z,1.08
2023-04-01T07:55:59.796Z,1.77
2023-04-01T07:58:39.955Z,1.05
2023-04-01T08:01:26.441Z,1.02
2023-04-01T08:04:19.065Z,1.15
2023-04-01T08:06:55.825Z,1.20
2023-04-01T08:09:35.613Z,1.58
2023-04-01T08:12:39.784Z,1.27
2023-04-01T08:15:40.322Z,1.10
2023-04-01T08:18:33.018Z,0.68
2023-04-01T08:21:11.028Z,0.77
2023-04-01T08:23:46.685Z,1.10
2023-04-01T08:26:29.919Z,1.42
2023-04-01T08:29:10.007Z,1.52
2023-04-01T08:31:49.868Z,1.02
2023-04-01T08:34:29.072Z,1.52
2023-04-01T08:37:20.058Z,0.50
2023-04-01T08:39:59.408Z,1.42
2023-04-01T08:43:06.076Z,1.60
2023-04-01T08:45:54.388Z,0.93
2023-04-01T08:48:44.414Z,1.42
2023-04-01T08:51:59.603Z,1.67
2023-04-01T08:54:46.738Z,0.98
2023-04-01T08:57:40.001Z,1.15
2023-04-01T09:00:44.292Z,0.77
2023-04-01T09:04:01.893Z,0.60
2023-04-01T09:06:40.961Z,1.00
2023-04-01T09:09:51.070Z,1.00
2023-04-01T09:13:00.397Z,1.08
2023-04-01T09:15:55.170Z,0.90
2023-04-01T09:18:46.285Z,1.05
2023-04-01T09:21:42.484Z,0.85
2023-04-01T09:24:39.244Z,0.98
2023-04-01T09:27:21.223Z,0.95
2023-04-01T09:30:23.384Z,1.17
2023-04-01T09:33:25.578Z,0.85
2023-04-01T09:36:08.429Z,1.00
2023-04-01T09:38:55.532Z,0.93
2023-04-01T09:41:32.739Z,0.90
2023-04-01T09:44:28.175Z,1.10
2023-04-01T09:47:32.297Z,1.13
2023-04-01T09:50:41.482Z,1.10
2023-04-01T09:56:20.421Z,1.50
2023-04-01T09:59:12.289Z,1.63
2023-04-01T10:02:28.212Z,1.17
2023-04-01T10:05:52.227Z,1.23
2023-04-01T10:08:52.305Z,0.60
2023-04-01T10:12:19.994Z,0.77
2023-04-01T10:15:24.342Z,1.05
2023-04-01T10:18:27.132Z,1.00
2023-04-01T10:21:25.289Z,1.20
2023-04-01T10:24:26.402Z,1.00
2023-04-01T10:27:30.417Z,0.65
2023-04-01T10:31:03.675Z,1.65
2023-04-01T10:34:06.081Z,1.95
2023-04-01T10:36:53.526Z,1.02
2023-04-01T10:40:20.938Z,1.58
2023-04-01T10:43:52.249Z,0.85
2023-04-01T10:47:12.782Z,1.30
2023-04-01T10:50:02.625Z,0.73
2023-04-01T10:53:12.098Z,2.10
2023-04-01T10:56:39.802Z,1.02
2023-04-01T11:00:04.084Z,1.15
2023-04-01T11:03:30.382Z,1.15
2023-04-01T11:07:00.271Z,1.13
2023-04-01T11:10:12.473Z,1.35
2023-04-01T11:13:25.607Z,1.67
2023-04-01T11:16:46.414Z,0.77
2023-04-01T11:19:50.432Z,1.35
2023-04-01T11:23:00.087Z,0.93
2023-04-01T11:25:55.623Z,2.05
2023-04-01T11:29:47.028Z,1.10
2023-04-01T11:32:44.482Z,0.75
2023-04-01T11:35:32.771Z,1.95
2023-04-01T11:38:18.778Z,1.58
2023-04-01T11:41:00.271Z,1.80
2023-04-01T11:44:15.747Z,2.42
2023-04-01T11:47:19.867Z,2.08
2023-04-01T11:50:12.159Z,2.75
2023-04-01T11:53:06.183Z,1.40
2023-04-01T11:55:53.494Z,2.20
2023-04-01T11:59:03.484Z,1.75
2023-04-01T12:01:48.791Z,2.30
2023-04-01T12:04:58.865Z,2.65
2023-04-01T12:07:54.062Z,3.25
2023-04-01T12:10:34.517Z,3.65
2023-04-01T12:13:19.253Z,2.75
2023-04-01T12:16:08.471Z,4.00
2023-04-01T12:18:48.248Z,3.83
2023-04-01T12:24:55.479Z,2.70
2023-04-01T12:27:38.944Z,2.42
2023-04-01T12:30:50.768Z,2.80
2023-04-01T12:33:57.645Z,3.03
2023-04-01T12:36:41.449Z,2.25
2023-04-01T12:39:45.591Z,1.92
2023-04-01T12:42:36.576Z,1.85
2023-04-01T12:45:28.138Z,2.45
2023-04-01T12:48:43.521Z,2.70
2023-04-01T12:51:52.577Z,2.75
2023-04-01T12:55:03.517Z,3.50
2023-04-01T12:58:20.913Z,2.90
2023-04-01T13:01:18.413Z,2.30
2023-04-01T13:04:13.209Z,1.98
2023-04-01T13:06:57.736Z,2.10
2023-04-01T13:09:41.038Z,1.65
2023-04-01T13:12:41.441Z,4.68
2023-04-01T13:15:29.200Z,1.90
2023-04-01T13:18:18.217Z,2.75
2023-04-01T13:21:00.358Z,1.48
2023-04-01T13:23:45.610Z,1.35
2023-04-01T13:26:23.351Z,1.42
2023-04-01T13:29:04.951Z,1.05
2023-04-01T13:31:51.405Z,1.52
2023-04-01T13:34:37.637Z,1.08
2023-04-01T13:37:22.271Z,1.52
2023-04-01T13:40:11.789Z,1.08
2023-04-01T13:42:48.629Z,1.20
2023-04-01T13:45:25.339Z,0.93
2023-04-01T13:48:34.106Z,1.38
2023-04-01T13:51:22.169Z,1.43
2023-04-01T13:54:07.390Z,2.63
2023-04-01T13:56:51.520Z,4.80
2023-04-01T13:59:57.465Z,1.00
2023-04-01T14:03:07.896Z,0.95
2023-04-01T14:06:03.045Z,0.70
2023-04-01T14:08:57.722Z,1.20
2023-04-01T14:11:40.141Z,1.50
2023-04-01T14:14:21.286Z,1.02
2023-04-01T14:17:13.009Z,1.30
2023-04-01T14:20:16.671Z,0.88
2023-04-01T14:23:05.901Z,0.98
2023-04-01T14:26:27.062Z,1.77
2023-04-01T14:29:12.977Z,1.08
2023-04-01T14:31:57.553Z,0.70
2023-04-01T14:34:44.289Z,1.05
2023-04-01T14:37:40.616Z,1.38
2023-04-01T14:40:23.358Z,2.38
2023-04-01T14:43:26.214Z,1.63
2023-04-01T14:46:15.270Z,1.30
2023-04-01T14:48:54.604Z,1.48
2023-04-01T14:51:32.600Z,0.73
2023-04-01T14:54:12.824Z,1.30
2023-04-01T14:56:49.315Z,1.67
2023-04-01T14:59:29.052Z,1.17
2023-04-01T15:02:09.938Z,1.33
2023-04-01T15:04:53.651Z,1.63
2023-04-01T15:07:51.617Z,1.80
2023-04-01T15:10:50.317Z,0.85
2023-04-01T15:13:37.829Z,1.17
2023-04-01T15:16:20.497Z,0.90
2023-04-01T15:19:02.114Z,2.63
2023-04-01T15:21:51.467Z,1.05
2023-04-01T15:24:26.484Z,0.90
2023-04-01T15:27:21.844Z,1.10
2023-04-01T15:30:14.191Z,1.40
2023-04-01T15:33:09.880Z,0.95
2023-04-01T15:35:51.603Z,1.85
2023-04-01T15:38:36.196Z,1.00
2023-04-01T15:41:16.487Z,1.75
2023-04-01T15:43:50.104Z,1.30
2023-04-01T15:46:43.809Z,1.30
2023-04-01T15:49:26.185Z,1.27
2023-04-01T15:52:11.599Z,1.65
2023-04-01T15:55:02.030Z,1.70
2023-04-01T15:57:46.209Z,0.30
2023-04-01T16:00:28.801Z,0.45
2023-04-01T16:03:33.931Z,0.30
2023-04-01T16:06:18.710Z,0.20
2023-04-01T16:09:11.060Z,0.22
2023-04-01T16:11:49.667Z,0.70
2023-04-01T16:14:32.520Z,0.22
2023-04-01T16:17:22.492Z,0.30
2023-04-01T16:20:00.345Z,0.60
2023-04-01T16:22:37.249Z,0.60
2023-04-01T16:25:21.723Z,3.63
2023-04-01T16:27:59.303Z,0.40
2023-04-01T16:30:38.192Z,0.57
2023-04-01T16:33:20.094Z,0.50
2023-04-01T16:35:58.954Z,1.30
2023-04-01T16:38:38.446Z,3.23
2023-04-01T16:41:18.472Z,2.42
2023-04-01T16:43:55.746Z,0.73
2023-04-01T16:46:38.833Z,1.13
2023-04-01T16:49:26.421Z,1.60
2023-04-01T16:52:15.403Z,3.30
2023-04-01T16:54:57.197Z,1.15
2023-04-01T16:57:37.294Z,1.58
2023-04-01T17:00:22.325Z,4.20
2023-04-01T17:03:04.691Z,2.38
2023-04-01T17:05:47.256Z,2.40
2023-04-01T17:08:31.148Z,2.25
2023-04-01T17:11:12.669Z,3.97
2023-04-01T17:13:50.819Z,2.55
2023-04-01T17:16:37.389Z,1.88
2023-04-01T17:19:25.584Z,3.08
2023-04-01T17:22:08.654Z,3.47
2023-04-01T17:24:58.691Z,2.63
2023-04-01T17:27:42.606Z,3.05
2023-04-01T17:30:36.160Z,3.55
2023-04-01T17:33:34.714Z,2.13
2023-04-01T17:36:17.146Z,2.47
2023-04-01T17:39:17.481Z,3.90
2023-04-01T17:41:55.484Z,3.33
2023-04-01T17:44:42.026Z,6.07
2023-04-01T17:47:46.180Z,4.35
2023-04-01T17:50:25.247Z,2.97
2023-04-01T17:53:12.402Z,3.70
2023-04-01T17:56:01.374Z,3.08
2023-04-01T17:58:43.907Z,3.17
2023-04-01T18:01:25.676Z,4.07
2023-04-01T18:04:12.434Z,2.10
2023-04-01T18:07:14.391Z,2.40
2023-04-01T18:10:03.526Z,3.45
2023-04-01T18:12:54.665Z,2.72
2023-04-01T18:15:38.140Z,3.95
2023-04-01T18:18:33.591Z,5.68
2023-04-01T18:21:14.891Z,3.05
2023-04-01T18:24:01.807Z,2.40
2023-04-01T18:26:38.825Z,4.95
2023-04-01T18:29:22.589Z,2.47
2023-04-01T18:32:23.798Z,2.15
2023-04-01T18:35:03.137Z,3.53
2023-04-01T18:37:40.359Z,3.13
2023-04-01T18:40:21.050Z,5.15
2023-04-01T18:43:19.995Z,5.50
2023-04-01T18:45:58.016Z,2.22
2023-04-01T18:48:47.143Z,1.88
2023-04-01T18:51:25.220Z,2.35
2023-04-01T18:54:01.373Z,1.88
2023-04-01T18:56:37.890Z,2.28
2023-04-01T18:59:13.395Z,3.10
2023-04-01T19:01:57.407Z,2.53
2023-04-01T19:04:37.798Z,2.45
2023-04-01T19:07:42.045Z,1.40
2023-04-01T19:10:18.281Z,3.05
2023-04-01T19:13:16.265Z,1.38
2023-04-01T19:15:55.144Z,2.85
2023-04-01T19:18:44.354Z,1.73
2023-04-01T19:21:22.309Z,1.50
2023-04-01T19:24:12.581Z,1.25
2023-04-01T19:26:50.541Z,2.15
2023-04-01T19:29:33.614Z,1.90
2023-04-01T19:32:17.453Z,1.27
2023-04-01T19:34:58.283Z,1.30
2023-04-01T19:37:36.343Z,2.88
2023-04-01T19:40:24.366Z,2.78
2023-04-01T19:43:03.302Z,3.80
2023-04-01T19:45:41.727Z,2.53
2023-04-01T19:48:38.668Z,5.57
2023-04-01T19:51:19.467Z,6.72
2023-04-01T19:54:02.015Z,4.32
2023-04-01T19:56:42.086Z,1.90
2023-04-01T19:59:24.280Z,2.28
2023-04-01T20:02:02.288Z,1.83
2023-04-01T20:04:38.791Z,2.05
2023-04-01T20:07:17.016Z,2.53
2023-04-01T20:09:56.576Z,2.63
2023-04-01T20:12:41.013Z,2.03
2023-04-01T20:15:30.177Z,2.15
2023-04-01T20:18:06.701Z,1.73
2023-04-01T20:20:40.589Z,2.83
2023-04-01T20:23:34.404Z,3.55
2023-04-01T20:26:11.040Z,3.08
2023-04-01T20:28:49.121Z,2.05
2023-04-01T20:31:28.327Z,2.75
2023-04-01T20:34:23.257Z,11.18
2023-04-01T20:37:02.611Z,1.58
2023-04-01T20:40:01.063Z,1.20
2023-04-01T20:42:50.306Z,1.00
2023-04-01T20:45:36.336Z,1.20
2023-04-01T20:48:27.721Z,1.05
2023-04-01T20:51:06.249Z,1.13
2023-04-01T20:53:44.582Z,1.63
2023-04-01T20:56:39.274Z,1.92
2023-04-01T20:59:25.564Z,2.40
2023-04-01T21:02:14.796Z,2.00
2023-04-01T21:05:25.635Z,1.83
2023-04-01T21:08:07.362Z,0.93
2023-04-01T21:10:44.267Z,0.80
2023-04-01T21:13:30.766Z,0.88
2023-04-01T21:16:15.497Z,1.25
2023-04-01T21:19:09.268Z,0.70
2023-04-01T21:22:01.694Z,0.38
2023-04-01T21:25:03.953Z,0.73
2023-04-01T21:27:48.734Z,0.70
2023-04-01T21:30:36.610Z,1.15
2023-04-01T21:33:25.637Z,0.73
2023-04-01T21:36:04.138Z,0.50
2023-04-01T21:38:49.374Z,0.90
2023-04-01T21:41:45.328Z,0.93
2023-04-01T21:44:34.940Z,1.08
2023-04-01T21:47:36.001Z,1.02
2023-04-01T21:50:28.411Z,1.20
2023-04-01T21:53:31.874Z,1.02
2023-04-01T21:56:39.326Z,0.85
2023-04-01T21:59:57.379Z,0.98
2023-04-01T22:03:23.837Z,0.73
2023-04-01T22:06:11.109Z,0.65
2023-04-01T22:08:54.202Z,0.60
2023-04-01T22:11:38.470Z,0.77
2023-04-01T22:14:18.045Z,0.30
2023-04-01T22:16:57.234Z,0.85
2023-04-01T22:19:38.689Z,0.90
2023-04-01T22:22:21.395Z,0.55
2023-04-01T22:25:07.483Z,0.50
2023-04-01T22:27:47.035Z,0.80
2023-04-01T22:30:24.059Z,1.00
2023-04-01T22:33:04.079Z,0.70
2023-04-01T22:35:44.803Z,0.40
2023-04-01T22:38:31.660Z,1.38
2023-04-01T22:41:15.506Z,0.82
2023-04-01T22:43:57.361Z,0.50
2023-04-01T22:46:49.356Z,0.73
2023-04-01T22:49:28.205Z,1.00
2023-04-01T22:52:06.304Z,1.73
2023-04-01T22:54:45.796Z,0.80
2023-04-01T22:57:32.964Z,0.93
2023-04-01T23:00:10.189Z,0.65
2023-04-01T23:02:47.777Z,0.95
2023-04-01T23:05:22.964Z,0.73
2023-04-01T23:08:01.897Z,0.77
2023-04-01T23:10:42.249Z,0.93
2023-04-01T23:13:19.280Z,0.65
2023-04-01T23:15:53.649Z,0.65
2023-04-01T23:18:30.596Z,0.70
2023-04-01T23:21:16.439Z,0.32
2023-04-01T23:23:58.983Z,0.70
2023-04-01T23:26:37.064Z,0.77
2023-04-01T23:29:15.442Z,0.80
2023-04-01T23:31:48.692Z,1.10
2023-04-01T23:34:28.008Z,0.95
2023-04-01T23:37:04.152Z,0.60
2023-04-01T23:39:39.222Z,1.10
2023-04-01T23:42:16.461Z,0.50
2023-04-01T23:44:51.425Z,0.57
2023-04-01T23:47:27.240Z,0.60
2023-04-01T23:50:04.527Z,0.50
2023-04-01T23:52:42.708Z,0.45
2023-04-01T23:55:19.159Z,0.95
2023-04-01T23:58:08.731Z,0.63
